Terminal Aerodrome Forecast
Issued by NWS

Home | Current Version | Previous Version | Text Only | Print | Product List | Glossary On
Versions: 1 2 3 4 5 6 7 8 9 10 11 12 13 14 15 16 17
000
FTAK31 PANC 031738
TAFADQ
TAF
PADQ 031738Z 0318/0418 29034G50KT P6SM FEW035
     FM040000 29022G34KT P6SM VCSH SCT035 BKN050
     FM040900 29015G25KT P6SM VCSH SCT035 BKN050=

USA.gov is the U.S. government's official web portal to all federal, state and local government web resources and services.